sensor_id;sensor_type;location;lat;lon;timestamp;P1;durP1;ratioP1;P2;durP2;ratioP2
45382;SDS011;42455;51.660;5.824;2023-04-24T00:01:15;5.0;;;4.0;;
45382;SDS011;42455;51.660;5.824;2023-04-24T00:06:21;4.0;;;4.0;;
45382;SDS011;42455;51.660;5.824;2023-04-24T00:11:28;5.0;;;4.0;;
45382;SDS011;42455;51.660;5.824;2023-04-24T00:16:34;6.0;;;5.0;;
45382;SDS011;42455;51.660;5.824;2023-04-24T00:21:40;7.0;;;6.0;;
45382;SDS011;42455;51.660;5.824;2023-04-24T00:26:46;8.0;;;7.0;;
45382;SDS011;42455;51.660;5.824;2023-04-24T00:31:52;8.0;;;7.0;;
45382;SDS011;42455;51.660;5.824;2023-04-24T00:36:59;8.0;;;8.0;;
45382;SDS011;42455;51.660;5.824;2023-04-24T00:42:05;9.0;;;8.0;;
45382;SDS011;42455;51.660;5.824;2023-04-24T00:47:10;10.0;;;9.0;;
45382;SDS011;42455;51.660;5.824;2023-04-24T00:52:16;10.0;;;9.0;;
45382;SDS011;42455;51.660;5.824;2023-04-24T00:57:21;11.0;;;10.0;;
45382;SDS011;42455;51.660;5.824;2023-04-24T01:02:28;12.0;;;11.0;;
45382;SDS011;42455;51.660;5.824;2023-04-24T01:07:34;12.0;;;11.0;;
45382;SDS011;42455;51.660;5.824;2023-04-24T01:12:40;14.0;;;12.0;;
45382;SDS011;42455;51.660;5.824;2023-04-24T01:17:46;14.0;;;12.0;;
45382;SDS011;42455;51.660;5.824;2023-04-24T01:22:52;14.0;;;12.0;;
45382;SDS011;42455;51.660;5.824;2023-04-24T01:27:59;14.0;;;12.0;;
45382;SDS011;42455;51.660;5.824;2023-04-24T01:33:05;14.0;;;13.0;;
45382;SDS011;42455;51.660;5.824;2023-04-24T01:38:11;15.0;;;13.0;;
45382;SDS011;42455;51.660;5.824;2023-04-24T01:43:17;15.0;;;14.0;;
45382;SDS011;42455;51.660;5.824;2023-04-24T01:48:24;16.0;;;14.0;;
45382;SDS011;42455;51.660;5.824;2023-04-24T01:53:30;15.0;;;14.0;;
45382;SDS011;42455;51.660;5.824;2023-04-24T01:58:36;15.0;;;14.0;;
45382;SDS011;42455;51.660;5.824;2023-04-24T02:03:42;15.0;;;14.0;;
45382;SDS011;42455;51.660;5.824;2023-04-24T02:08:48;17.0;;;15.0;;
45382;SDS011;42455;51.660;5.824;2023-04-24T02:13:55;18.0;;;16.0;;
45382;SDS011;42455;51.660;5.824;2023-04-24T02:19:01;20.0;;;18.0;;
45382;SDS011;42455;51.660;5.824;2023-04-24T02:24:07;20.5;;;18.5;;
45382;SDS011;42455;51.660;5.824;2023-04-24T02:29:13;21.0;;;19.0;;
45382;SDS011;42455;51.660;5.824;2023-04-24T02:34:19;22.0;;;19.0;;
45382;SDS011;42455;51.660;5.824;2023-04-24T02:39:26;21.0;;;19.0;;
45382;SDS011;42455;51.660;5.824;2023-04-24T02:44:31;22.0;;;20.0;;
45382;SDS011;42455;51.660;5.824;2023-04-24T02:49:37;22.0;;;20.0;;
45382;SDS011;42455;51.660;5.824;2023-04-24T02:54:43;22.0;;;20.0;;
45382;SDS011;42455;51.660;5.824;2023-04-24T02:59:50;21.0;;;19.0;;
45382;SDS011;42455;51.660;5.824;2023-04-24T03:04:56;21.0;;;19.0;;
45382;SDS011;42455;51.660;5.824;2023-04-24T03:10:02;21.5;;;19.0;;
45382;SDS011;42455;51.660;5.824;2023-04-24T03:15:08;21.0;;;19.0;;
45382;SDS011;42455;51.660;5.824;2023-04-24T03:20:14;22.0;;;20.0;;
45382;SDS011;42455;51.660;5.824;2023-04-24T03:25:20;21.0;;;19.0;;
45382;SDS011;42455;51.660;5.824;2023-04-24T03:30:27;20.0;;;18.0;;
45382;SDS011;42455;51.660;5.824;2023-04-24T03:35:33;20.0;;;18.0;;
45382;SDS011;42455;51.660;5.824;2023-04-24T03:40:38;20.0;;;18.0;;
45382;SDS011;42455;51.660;5.824;2023-04-24T03:45:44;20.0;;;18.0;;
45382;SDS011;42455;51.660;5.824;2023-04-24T03:50:51;21.0;;;19.0;;
45382;SDS011;42455;51.660;5.824;2023-04-24T03:55:57;21.0;;;18.5;;
45382;SDS011;42455;51.660;5.824;2023-04-24T04:01:03;19.0;;;17.0;;
45382;SDS011;42455;51.660;5.824;2023-04-24T04:06:09;20.0;;;17.5;;
45382;SDS011;42455;51.660;5.824;2023-04-24T04:11:15;18.0;;;16.0;;
45382;SDS011;42455;51.660;5.824;2023-04-24T04:16:22;17.0;;;16.0;;
45382;SDS011;42455;51.660;5.824;2023-04-24T04:21:28;17.0;;;15.0;;
45382;SDS011;42455;51.660;5.824;2023-04-24T04:26:34;16.0;;;14.5;;
45382;SDS011;42455;51.660;5.824;2023-04-24T04:31:39;16.0;;;14.0;;
45382;SDS011;42455;51.660;5.824;2023-04-24T04:36:46;15.0;;;14.0;;
45382;SDS011;42455;51.660;5.824;2023-04-24T04:41:51;15.0;;;14.0;;
45382;SDS011;42455;51.660;5.824;2023-04-24T04:46:57;15.0;;;13.5;;
45382;SDS011;42455;51.660;5.824;2023-04-24T04:52:02;15.0;;;13.0;;
45382;SDS011;42455;51.660;5.824;2023-04-24T04:57:09;13.0;;;12.0;;
45382;SDS011;42455;51.660;5.824;2023-04-24T05:02:15;14.0;;;12.0;;
45382;SDS011;42455;51.660;5.824;2023-04-24T05:07:21;13.0;;;12.0;;
45382;SDS011;42455;51.660;5.824;2023-04-24T05:12:27;12.0;;;11.0;;
45382;SDS011;42455;51.660;5.824;2023-04-24T05:17:33;12.0;;;11.0;;
45382;SDS011;42455;51.660;5.824;2023-04-24T05:22:39;12.0;;;11.0;;
45382;SDS011;42455;51.660;5.824;2023-04-24T05:27:46;11.0;;;10.0;;
45382;SDS011;42455;51.660;5.824;2023-04-24T05:32:52;10.0;;;9.0;;
45382;SDS011;42455;51.660;5.824;2023-04-24T05:37:58;10.0;;;9.0;;
45382;SDS011;42455;51.660;5.824;2023-04-24T05:43:04;10.0;;;9.0;;
45382;SDS011;42455;51.660;5.824;2023-04-24T05:48:10;9.0;;;8.5;;
45382;SDS011;42455;51.660;5.824;2023-04-24T05:53:17;10.0;;;9.0;;
45382;SDS011;42455;51.660;5.824;2023-04-24T06:03:29;9.0;;;8.0;;
45382;SDS011;42455;51.660;5.824;2023-04-24T06:08:35;10.0;;;9.0;;
45382;SDS011;42455;51.660;5.824;2023-04-24T06:13:42;9.5;;;9.0;;
45382;SDS011;42455;51.660;5.824;2023-04-24T06:18:48;9.5;;;9.0;;
45382;SDS011;42455;51.660;5.824;2023-04-24T06:23:54;7.0;;;6.0;;
45382;SDS011;42455;51.660;5.824;2023-04-24T06:29:00;5.0;;;5.0;;
45382;SDS011;42455;51.660;5.824;2023-04-24T06:34:06;5.0;;;4.0;;
45382;SDS011;42455;51.660;5.824;2023-04-24T06:39:12;3.0;;;3.0;;
45382;SDS011;42455;51.660;5.824;2023-04-24T06:44:18;3.0;;;2.0;;
45382;SDS011;42455;51.660;5.824;2023-04-24T06:49:24;2.0;;;2.0;;
45382;SDS011;42455;51.660;5.824;2023-04-24T06:54:30;2.0;;;2.0;;
45382;SDS011;42455;51.660;5.824;2023-04-24T06:59:35;1.0;;;1.0;;
45382;SDS011;42455;51.660;5.824;2023-04-24T07:04:42;1.0;;;1.0;;
45382;SDS011;42455;51.660;5.824;2023-04-24T07:09:48;1.0;;;1.0;;
45382;SDS011;42455;51.660;5.824;2023-04-24T07:14:54;0.5;;;0.5;;
45382;SDS011;42455;51.660;5.824;2023-04-24T07:20:00;1.0;;;1.0;;
45382;SDS011;42455;51.660;5.824;2023-04-24T07:25:06;1.0;;;1.0;;
45382;SDS011;42455;51.660;5.824;2023-04-24T07:30:13;1.0;;;1.0;;
45382;SDS011;42455;51.660;5.824;2023-04-24T07:35:19;3.0;;;2.0;;
45382;SDS011;42455;51.660;5.824;2023-04-24T07:40:25;4.0;;;4.0;;
45382;SDS011;42455;51.660;5.824;2023-04-24T07:45:31;7.0;;;6.0;;
45382;SDS011;42455;51.660;5.824;2023-04-24T07:50:38;9.0;;;8.0;;
45382;SDS011;42455;51.660;5.824;2023-04-24T07:55:44;9.0;;;8.0;;
45382;SDS011;42455;51.660;5.824;2023-04-24T08:00:50;10.0;;;9.0;;
45382;SDS011;42455;51.660;5.824;2023-04-24T08:05:56;10.5;;;9.0;;
45382;SDS011;42455;51.660;5.824;2023-04-24T08:11:02;9.0;;;8.0;;
45382;SDS011;42455;51.660;5.824;2023-04-24T08:16:09;9.0;;;8.0;;
45382;SDS011;42455;51.660;5.824;2023-04-24T08:21:15;9.0;;;8.0;;
45382;SDS011;42455;51.660;5.824;2023-04-24T08:26:21;10.5;;;8.0;;
45382;SDS011;42455;51.660;5.824;2023-04-24T08:31:27;10.5;;;8.0;;
45382;SDS011;42455;51.660;5.824;2023-04-24T08:36:33;10.0;;;8.0;;
45382;SDS011;42455;51.660;5.824;2023-04-24T08:41:40;11.0;;;8.0;;
45382;SDS011;42455;51.660;5.824;2023-04-24T08:46:45;13.0;;;8.0;;
45382;SDS011;42455;51.660;5.824;2023-04-24T08:51:51;12.5;;;6.0;;
45382;SDS011;42455;51.660;5.824;2023-04-24T08:56:57;8.0;;;4.0;;
45382;SDS011;42455;51.660;5.824;2023-04-24T09:02:02;9.0;;;4.0;;
45382;SDS011;42455;51.660;5.824;2023-04-24T09:07:10;9.0;;;4.0;;
45382;SDS011;42455;51.660;5.824;2023-04-24T09:12:15;8.0;;;4.0;;
45382;SDS011;42455;51.660;5.824;2023-04-24T09:17:21;9.0;;;4.0;;
45382;SDS011;42455;51.660;5.824;2023-04-24T09:22:28;8.5;;;4.0;;
45382;SDS011;42455;51.660;5.824;2023-04-24T09:27:34;9.0;;;4.0;;
45382;SDS011;42455;51.660;5.824;2023-04-24T09:32:40;8.0;;;4.0;;
45382;SDS011;42455;51.660;5.824;2023-04-24T09:37:46;10.0;;;4.0;;
45382;SDS011;42455;51.660;5.824;2023-04-24T09:42:53;9.0;;;4.0;;
45382;SDS011;42455;51.660;5.824;2023-04-24T09:47:58;10.0;;;4.0;;
45382;SDS011;42455;51.660;5.824;2023-04-24T09:53:05;9.0;;;3.0;;
45382;SDS011;42455;51.660;5.824;2023-04-24T09:58:11;8.0;;;3.0;;
45382;SDS011;42455;51.660;5.824;2023-04-24T10:03:17;8.0;;;3.0;;
45382;SDS011;42455;51.660;5.824;2023-04-24T10:08:23;6.5;;;3.0;;
45382;SDS011;42455;51.660;5.824;2023-04-24T10:13:29;8.0;;;3.0;;
45382;SDS011;42455;51.660;5.824;2023-04-24T10:18:36;6.0;;;3.0;;
45382;SDS011;42455;51.660;5.824;2023-04-24T10:23:42;7.0;;;3.0;;
45382;SDS011;42455;51.660;5.824;2023-04-24T10:28:48;6.0;;;3.0;;
45382;SDS011;42455;51.660;5.824;2023-04-24T10:33:55;7.0;;;3.0;;
45382;SDS011;42455;51.660;5.824;2023-04-24T10:39:03;7.0;;;3.0;;
45382;SDS011;42455;51.660;5.824;2023-04-24T10:44:06;7.0;;;3.0;;
45382;SDS011;42455;51.660;5.824;2023-04-24T10:49:12;5.0;;;3.0;;
45382;SDS011;42455;51.660;5.824;2023-04-24T10:54:29;4.0;;;2.0;;
45382;SDS011;42455;51.660;5.824;2023-04-24T10:59:26;3.5;;;2.0;;
45382;SDS011;42455;51.660;5.824;2023-04-24T11:04:32;3.0;;;1.0;;
45382;SDS011;42455;51.660;5.824;2023-04-24T11:09:36;4.0;;;2.0;;
45382;SDS011;42455;51.660;5.824;2023-04-24T11:15:12;5.0;;;1.0;;
45382;SDS011;42455;51.660;5.824;2023-04-24T11:19:49;3.0;;;2.0;;
45382;SDS011;42455;51.660;5.824;2023-04-24T11:24:54;5.0;;;1.0;;
45382;SDS011;42455;51.660;5.824;2023-04-24T11:30:01;3.5;;;1.0;;
45382;SDS011;42455;51.660;5.824;2023-04-24T11:35:08;4.0;;;2.0;;
45382;SDS011;42455;51.660;5.824;2023-04-24T11:40:14;2.0;;;1.0;;
45382;SDS011;42455;51.660;5.824;2023-04-24T11:45:22;3.0;;;1.0;;
45382;SDS011;42455;51.660;5.824;2023-04-24T11:50:27;2.0;;;1.0;;
45382;SDS011;42455;51.660;5.824;2023-04-24T11:55:32;2.5;;;1.0;;
45382;SDS011;42455;51.660;5.824;2023-04-24T12:00:38;3.0;;;1.0;;
45382;SDS011;42455;51.660;5.824;2023-04-24T12:05:44;1.5;;;1.0;;
45382;SDS011;42455;51.660;5.824;2023-04-24T12:10:51;2.0;;;1.0;;
45382;SDS011;42455;51.660;5.824;2023-04-24T12:15:57;3.0;;;1.0;;
45382;SDS011;42455;51.660;5.824;2023-04-24T12:21:18;5.0;;;2.0;;
45382;SDS011;42455;51.660;5.824;2023-04-24T12:26:09;3.0;;;2.0;;
45382;SDS011;42455;51.660;5.824;2023-04-24T12:31:15;4.0;;;2.0;;
45382;SDS011;42455;51.660;5.824;2023-04-24T12:36:21;4.0;;;1.0;;
45382;SDS011;42455;51.660;5.824;2023-04-24T12:41:30;3.0;;;2.0;;
45382;SDS011;42455;51.660;5.824;2023-04-24T12:46:33;3.5;;;1.0;;
45382;SDS011;42455;51.660;5.824;2023-04-24T12:51:39;3.5;;;1.0;;
45382;SDS011;42455;51.660;5.824;2023-04-24T12:56:45;4.0;;;1.0;;
45382;SDS011;42455;51.660;5.824;2023-04-24T13:01:51;3.0;;;2.0;;
45382;SDS011;42455;51.660;5.824;2023-04-24T13:06:57;3.0;;;2.0;;
45382;SDS011;42455;51.660;5.824;2023-04-24T13:12:04;3.0;;;2.0;;
45382;SDS011;42455;51.660;5.824;2023-04-24T13:17:10;4.0;;;2.0;;
45382;SDS011;42455;51.660;5.824;2023-04-24T13:22:17;5.0;;;1.0;;
45382;SDS011;42455;51.660;5.824;2023-04-24T13:27:22;2.0;;;1.0;;
45382;SDS011;42455;51.660;5.824;2023-04-24T13:32:29;2.0;;;1.0;;
45382;SDS011;42455;51.660;5.824;2023-04-24T13:37:35;2.0;;;1.0;;
45382;SDS011;42455;51.660;5.824;2023-04-24T13:42:41;3.0;;;1.0;;
45382;SDS011;42455;51.660;5.824;2023-04-24T13:47:47;3.0;;;1.0;;
45382;SDS011;42455;51.660;5.824;2023-04-24T13:52:53;2.0;;;1.0;;
45382;SDS011;42455;51.660;5.824;2023-04-24T13:58:00;3.0;;;2.0;;
45382;SDS011;42455;51.660;5.824;2023-04-24T14:03:06;4.0;;;2.0;;
45382;SDS011;42455;51.660;5.824;2023-04-24T14:08:12;4.0;;;2.0;;
45382;SDS011;42455;51.660;5.824;2023-04-24T14:13:18;2.0;;;1.0;;
45382;SDS011;42455;51.660;5.824;2023-04-24T14:18:25;2.0;;;1.0;;
45382;SDS011;42455;51.660;5.824;2023-04-24T14:23:31;3.0;;;1.0;;
45382;SDS011;42455;51.660;5.824;2023-04-24T14:28:36;3.0;;;1.0;;
45382;SDS011;42455;51.660;5.824;2023-04-24T14:33:42;3.0;;;1.0;;
45382;SDS011;42455;51.660;5.824;2023-04-24T14:38:47;4.0;;;2.0;;
45382;SDS011;42455;51.660;5.824;2023-04-24T14:43:54;2.5;;;2.0;;
45382;SDS011;42455;51.660;5.824;2023-04-24T14:49:00;4.0;;;2.0;;
45382;SDS011;42455;51.660;5.824;2023-04-24T14:54:05;5.0;;;2.0;;
45382;SDS011;42455;51.660;5.824;2023-04-24T14:59:11;4.0;;;2.0;;
45382;SDS011;42455;51.660;5.824;2023-04-24T15:04:18;2.0;;;2.0;;
45382;SDS011;42455;51.660;5.824;2023-04-24T15:09:24;3.0;;;2.0;;
45382;SDS011;42455;51.660;5.824;2023-04-24T15:14:30;3.0;;;2.0;;
45382;SDS011;42455;51.660;5.824;2023-04-24T15:19:36;5.0;;;3.0;;
45382;SDS011;42455;51.660;5.824;2023-04-24T15:24:42;5.0;;;2.0;;
45382;SDS011;42455;51.660;5.824;2023-04-24T15:29:49;4.0;;;2.0;;
45382;SDS011;42455;51.660;5.824;2023-04-24T15:34:55;4.0;;;2.0;;
45382;SDS011;42455;51.660;5.824;2023-04-24T15:40:01;5.0;;;2.0;;
45382;SDS011;42455;51.660;5.824;2023-04-24T15:45:07;5.0;;;3.0;;
45382;SDS011;42455;51.660;5.824;2023-04-24T15:50:14;5.0;;;3.0;;
45382;SDS011;42455;51.660;5.824;2023-04-24T15:55:20;4.5;;;3.0;;
45382;SDS011;42455;51.660;5.824;2023-04-24T16:00:26;7.0;;;3.0;;
45382;SDS011;42455;51.660;5.824;2023-04-24T16:05:32;6.0;;;3.0;;
45382;SDS011;42455;51.660;5.824;2023-04-24T16:10:38;6.0;;;4.0;;
45382;SDS011;42455;51.660;5.824;2023-04-24T16:15:44;7.0;;;3.5;;
45382;SDS011;42455;51.660;5.824;2023-04-24T16:20:51;7.0;;;4.0;;
45382;SDS011;42455;51.660;5.824;2023-04-24T16:25:57;6.0;;;3.0;;
45382;SDS011;42455;51.660;5.824;2023-04-24T16:31:03;7.0;;;3.0;;
45382;SDS011;42455;51.660;5.824;2023-04-24T16:36:10;8.0;;;3.0;;
45382;SDS011;42455;51.660;5.824;2023-04-24T16:41:14;7.0;;;3.0;;
45382;SDS011;42455;51.660;5.824;2023-04-24T16:46:21;9.0;;;3.0;;
45382;SDS011;42455;51.660;5.824;2023-04-24T16:51:27;7.0;;;3.0;;
45382;SDS011;42455;51.660;5.824;2023-04-24T16:56:33;7.0;;;3.0;;
45382;SDS011;42455;51.660;5.824;2023-04-24T17:01:39;7.0;;;3.0;;
45382;SDS011;42455;51.660;5.824;2023-04-24T17:06:46;8.0;;;4.0;;
45382;SDS011;42455;51.660;5.824;2023-04-24T17:11:52;9.0;;;3.0;;
45382;SDS011;42455;51.660;5.824;2023-04-24T17:16:58;8.0;;;4.0;;
45382;SDS011;42455;51.660;5.824;2023-04-24T17:22:04;9.0;;;4.0;;
45382;SDS011;42455;51.660;5.824;2023-04-24T17:27:10;7.0;;;4.0;;
45382;SDS011;42455;51.660;5.824;2023-04-24T17:32:17;8.0;;;4.0;;
45382;SDS011;42455;51.660;5.824;2023-04-24T17:37:23;8.0;;;4.0;;
45382;SDS011;42455;51.660;5.824;2023-04-24T17:42:29;10.0;;;4.0;;
45382;SDS011;42455;51.660;5.824;2023-04-24T17:47:35;8.0;;;3.0;;
45382;SDS011;42455;51.660;5.824;2023-04-24T17:52:41;8.0;;;4.0;;
45382;SDS011;42455;51.660;5.824;2023-04-24T17:57:48;8.0;;;4.0;;
45382;SDS011;42455;51.660;5.824;2023-04-24T18:02:54;9.0;;;4.0;;
45382;SDS011;42455;51.660;5.824;2023-04-24T18:08:00;10.0;;;4.0;;
45382;SDS011;42455;51.660;5.824;2023-04-24T18:13:06;7.0;;;4.0;;
45382;SDS011;42455;51.660;5.824;2023-04-24T18:18:12;8.0;;;4.0;;
45382;SDS011;42455;51.660;5.824;2023-04-24T18:23:19;9.0;;;4.0;;
45382;SDS011;42455;51.660;5.824;2023-04-24T18:28:24;10.0;;;4.0;;
45382;SDS011;42455;51.660;5.824;2023-04-24T18:33:30;9.5;;;4.0;;
45382;SDS011;42455;51.660;5.824;2023-04-24T18:38:36;9.5;;;4.0;;
45382;SDS011;42455;51.660;5.824;2023-04-24T18:43:41;10.5;;;4.0;;
45382;SDS011;42455;51.660;5.824;2023-04-24T18:48:47;9.0;;;4.0;;
45382;SDS011;42455;51.660;5.824;2023-04-24T18:53:53;7.0;;;4.0;;
45382;SDS011;42455;51.660;5.824;2023-04-24T18:58:59;8.0;;;4.0;;
45382;SDS011;42455;51.660;5.824;2023-04-24T19:04:06;11.0;;;5.0;;
45382;SDS011;42455;51.660;5.824;2023-04-24T19:09:12;10.0;;;4.0;;
45382;SDS011;42455;51.660;5.824;2023-04-24T19:14:18;10.0;;;4.0;;
45382;SDS011;42455;51.660;5.824;2023-04-24T19:19:24;9.0;;;4.0;;
45382;SDS011;42455;51.660;5.824;2023-04-24T19:24:30;8.0;;;4.0;;
45382;SDS011;42455;51.660;5.824;2023-04-24T19:29:36;9.0;;;4.0;;
45382;SDS011;42455;51.660;5.824;2023-04-24T19:34:43;9.0;;;4.0;;
45382;SDS011;42455;51.660;5.824;2023-04-24T19:39:49;10.0;;;5.0;;
45382;SDS011;42455;51.660;5.824;2023-04-24T19:44:55;9.0;;;4.0;;
45382;SDS011;42455;51.660;5.824;2023-04-24T19:50:01;9.0;;;4.0;;
45382;SDS011;42455;51.660;5.824;2023-04-24T19:55:08;11.0;;;5.0;;
45382;SDS011;42455;51.660;5.824;2023-04-24T20:00:14;10.0;;;5.0;;
45382;SDS011;42455;51.660;5.824;2023-04-24T20:10:26;10.0;;;5.0;;
45382;SDS011;42455;51.660;5.824;2023-04-24T20:15:32;10.0;;;5.0;;
45382;SDS011;42455;51.660;5.824;2023-04-24T20:20:39;11.0;;;5.0;;
45382;SDS011;42455;51.660;5.824;2023-04-24T20:25:45;10.0;;;5.0;;
45382;SDS011;42455;51.660;5.824;2023-04-24T20:30:51;11.0;;;5.0;;
45382;SDS011;42455;51.660;5.824;2023-04-24T20:35:57;9.5;;;5.0;;
45382;SDS011;42455;51.660;5.824;2023-04-24T20:41:02;8.0;;;5.0;;
45382;SDS011;42455;51.660;5.824;2023-04-24T20:46:08;13.0;;;6.0;;
45382;SDS011;42455;51.660;5.824;2023-04-24T20:51:13;10.0;;;6.0;;
45382;SDS011;42455;51.660;5.824;2023-04-24T20:56:19;13.0;;;6.0;;
45382;SDS011;42455;51.660;5.824;2023-04-24T21:01:25;11.0;;;7.0;;
45382;SDS011;42455;51.660;5.824;2023-04-24T21:06:32;11.0;;;6.0;;
45382;SDS011;42455;51.660;5.824;2023-04-24T21:11:38;15.0;;;8.0;;
45382;SDS011;42455;51.660;5.824;2023-04-24T21:16:44;15.0;;;8.0;;
45382;SDS011;42455;51.660;5.824;2023-04-24T21:21:50;15.5;;;7.0;;
45382;SDS011;42455;51.660;5.824;2023-04-24T21:26:57;12.0;;;7.0;;
45382;SDS011;42455;51.660;5.824;2023-04-24T21:32:03;10.0;;;6.0;;
45382;SDS011;42455;51.660;5.824;2023-04-24T21:37:09;11.0;;;5.0;;
45382;SDS011;42455;51.660;5.824;2023-04-24T21:42:15;9.0;;;5.0;;
45382;SDS011;42455;51.660;5.824;2023-04-24T21:47:21;9.0;;;5.0;;
45382;SDS011;42455;51.660;5.824;2023-04-24T21:52:27;11.0;;;6.0;;
45382;SDS011;42455;51.660;5.824;2023-04-24T21:57:33;10.0;;;6.0;;
45382;SDS011;42455;51.660;5.824;2023-04-24T22:02:40;11.0;;;6.0;;
45382;SDS011;42455;51.660;5.824;2023-04-24T22:07:46;11.0;;;6.0;;
45382;SDS011;42455;51.660;5.824;2023-04-24T22:12:52;13.0;;;8.0;;
45382;SDS011;42455;51.660;5.824;2023-04-24T22:17:58;14.0;;;8.0;;
45382;SDS011;42455;51.660;5.824;2023-04-24T22:23:05;13.0;;;7.0;;
45382;SDS011;42455;51.660;5.824;2023-04-24T22:28:11;12.0;;;7.0;;
45382;SDS011;42455;51.660;5.824;2023-04-24T22:33:17;13.0;;;7.0;;
45382;SDS011;42455;51.660;5.824;2023-04-24T22:38:22;13.0;;;7.0;;
45382;SDS011;42455;51.660;5.824;2023-04-24T22:43:28;13.0;;;7.0;;
45382;SDS011;42455;51.660;5.824;2023-04-24T22:48:35;12.0;;;6.0;;
45382;SDS011;42455;51.660;5.824;2023-04-24T22:53:41;11.0;;;6.0;;
45382;SDS011;42455;51.660;5.824;2023-04-24T22:58:47;13.0;;;6.0;;
45382;SDS011;42455;51.660;5.824;2023-04-24T23:03:53;11.5;;;6.0;;
45382;SDS011;42455;51.660;5.824;2023-04-24T23:08:59;13.0;;;7.0;;
45382;SDS011;42455;51.660;5.824;2023-04-24T23:14:06;12.0;;;6.0;;
45382;SDS011;42455;51.660;5.824;2023-04-24T23:19:12;12.0;;;7.0;;
45382;SDS011;42455;51.660;5.824;2023-04-24T23:24:18;11.0;;;7.0;;
45382;SDS011;42455;51.660;5.824;2023-04-24T23:29:24;10.0;;;6.0;;
45382;SDS011;42455;51.660;5.824;2023-04-24T23:39:37;10.0;;;6.0;;
45382;SDS011;42455;51.660;5.824;2023-04-24T23:44:43;10.0;;;6.0;;
45382;SDS011;42455;51.660;5.824;2023-04-24T23:49:49;11.0;;;6.0;;
45382;SDS011;42455;51.660;5.824;2023-04-24T23:54:55;14.0;;;6.0;;
